Time;durP1;ratioP1;P1;durP2;ratioP2;P2;SDS_P1;SDS_P2;PMS_P1;PMS_P2;Temp;Humidity;BMP_temperature;BMP_pressure;BME280_temperature;BME280_humidity;BME280_pressure;Samples;Min_cycle;Max_cycle;Signal;HPM_P1;HPM_P2
2021/01/29 00:00:57;;;;;;;17.75;10.65;;;;;;;0.98;91.40;98812.44;5052676;28;20044;-73
2021/01/29 00:03:22;;;;;;;18.15;10.75;;;;;;;0.96;91.46;98812.47;5052600;28;20037;-71
2021/01/29 00:05:58;;;;;;;18.75;11.38;;;;;;;1.04;90.86;98822.66;5018472;28;20044;-71
2021/01/29 00:08:24;;;;;;;20.58;11.93;;;;;;;1.09;90.74;98837.28;5052621;28;20036;-73
2021/01/29 00:10:52;;;;;;;17.90;10.90;;;;;;;0.99;91.47;98817.63;5052369;28;20086;-73
2021/01/29 00:13:18;;;;;;;17.90;11.45;;;;;;;1.03;91.46;98824.44;5052831;28;20041;-71
2021/01/29 00:15:44;;;;;;;19.13;11.82;;;;;;;1.05;90.93;98804.19;5018388;28;20036;-71
2021/01/29 00:18:10;;;;;;;19.98;11.95;;;;;;;1.11;91.11;98813.59;5053531;28;20060;-70
2021/01/29 00:20:36;;;;;;;21.20;11.65;;;;;;;1.23;90.92;98812.19;5056392;28;20033;-71
2021/01/29 00:23:03;;;;;;;18.83;11.35;;;;;;;1.28;90.10;98802.34;5056385;28;20036;-71
2021/01/29 00:25:32;;;;;;;19.20;11.70;;;;;;;1.08;90.58;98787.47;5038557;28;20029;-71
2021/01/29 00:27:58;;;;;;;22.33;12.77;;;;;;;1.15;90.75;98807.25;5055703;28;20379;-77
2021/01/29 00:30:24;;;;;;;19.60;12.05;;;;;;;1.12;90.94;98808.25;5038450;28;20086;-72
2021/01/29 00:32:51;;;;;;;20.45;12.60;;;;;;;1.10;91.32;98810.09;5056608;28;20041;-68
2021/01/29 00:35:18;;;;;;;22.45;13.05;;;;;;;1.17;91.27;98808.06;5038163;28;20043;-67
2021/01/29 00:37:44;;;;;;;20.58;12.88;;;;;;;1.14;91.42;98808.19;5056091;28;20032;-68
2021/01/29 00:40:10;;;;;;;21.63;12.32;;;;;;;1.09;91.31;98794.44;5055668;28;20057;-68
2021/01/29 00:42:36;;;;;;;20.20;12.55;;;;;;;1.10;91.53;98798.75;5056256;28;20053;-69
2021/01/29 00:45:04;;;;;;;21.30;12.85;;;;;;;0.87;91.59;98768.28;5038062;28;20123;-71
2021/01/29 00:47:30;;;;;;;22.08;12.77;;;;;;;1.04;91.35;98796.38;5038228;28;20033;-70
2021/01/29 00:49:56;;;;;;;19.60;12.07;;;;;;;1.07;91.20;98799.75;5056004;28;20497;-69
2021/01/29 00:52:21;;;;;;;22.17;13.27;;;;;;;1.13;91.40;98796.81;5056118;28;20076;-69
2021/01/29 00:54:46;;;;;;;20.70;12.52;;;;;;;1.14;91.12;98792.44;5055987;28;20422;-68
2021/01/29 00:57:12;;;;;;;20.20;12.70;;;;;;;1.02;91.22;98785.97;5021383;28;20044;-72
2021/01/29 00:59:38;;;;;;;21.33;12.30;;;;;;;1.04;91.80;98802.50;5038118;28;20036;-71
2021/01/29 01:02:04;;;;;;;21.42;13.43;;;;;;;1.12;91.48;98813.50;5037675;28;20028;-71
2021/01/29 01:04:29;;;;;;;23.58;13.15;;;;;;;1.14;91.57;98808.19;5037773;28;20033;-69
2021/01/29 01:06:55;;;;;;;23.73;13.43;;;;;;;1.10;91.38;98801.38;5055576;28;20033;-68
2021/01/29 01:09:20;;;;;;;20.85;12.85;;;;;;;1.17;91.31;98805.44;5037498;28;20059;-68
2021/01/29 01:11:46;;;;;;;22.45;12.95;;;;;;;1.08;91.38;98788.31;5037596;28;20043;-69
2021/01/29 01:14:11;;;;;;;21.92;13.05;;;;;;;0.94;90.98;98774.94;5037615;28;20033;-69
2021/01/29 01:16:37;;;;;;;21.85;13.68;;;;;;;1.12;91.53;98800.38;5055557;28;20047;-68
2021/01/29 01:19:03;;;;;;;21.98;13.52;;;;;;;1.19;91.60;98808.84;5037301;28;20120;-70
2021/01/29 01:21:29;;;;;;;20.95;12.93;;;;;;;1.11;91.38;98808.34;5055244;28;20056;-68
2021/01/29 01:23:54;;;;;;;21.00;12.90;;;;;;;0.97;91.85;98790.59;5037678;28;20057;-69
2021/01/29 01:26:20;;;;;;;25.08;13.95;;;;;;;0.99;91.36;98796.63;5054788;28;20056;-70
2021/01/29 01:28:45;;;;;;;21.40;13.00;;;;;;;1.14;91.28;98823.94;5055146;28;20088;-69
2021/01/29 01:31:11;;;;;;;20.40;12.70;;;;;;;1.25;91.08;98844.47;5037390;28;20351;-71
2021/01/29 01:33:36;;;;;;;21.02;13.35;;;;;;;1.26;91.20;98835.69;5037478;28;20458;-70
2021/01/29 01:36:02;;;;;;;22.17;13.23;;;;;;;1.20;90.99;98812.31;5054913;28;20374;-75
2021/01/29 01:38:28;;;;;;;21.92;12.93;;;;;;;1.35;90.93;98832.63;5037148;28;20034;-71
2021/01/29 01:40:53;;;;;;;21.38;13.38;;;;;;;1.09;90.70;98787.41;5054937;28;20533;-71
2021/01/29 01:43:19;;;;;;;24.65;13.85;;;;;;;1.29;90.84;98825.03;5054622;28;20402;-69
2021/01/29 01:45:56;;;;;;;24.27;13.43;;;;;;;1.26;90.99;98831.31;5037082;28;20116;-69
2021/01/29 01:48:35;;;;;;;22.00;13.63;;;;;;;1.05;91.40;98793.69;5054625;28;20036;-70
2021/01/29 01:51:02;;;;;;;22.48;13.98;;;;;;;1.28;91.03;98825.97;5054978;28;20029;-70
2021/01/29 01:53:31;;;;;;;27.80;13.95;;;;;;;1.30;91.11;98824.13;5036913;28;20434;-71
2021/01/29 01:56:13;;;;;;;25.30;14.30;;;;;;;1.29;91.03;98812.75;5054590;28;20083;-70
2021/01/29 01:58:41;;;;;;;28.58;14.73;;;;;;;1.21;91.06;98798.28;5036741;28;20033;-70
2021/01/29 02:01:07;;;;;;;28.35;15.32;;;;;;;1.19;91.25;98800.13;5037291;28;20029;-71
2021/01/29 02:03:34;;;;;;;26.30;14.43;;;;;;;1.00;91.27;98769.44;5055029;28;20025;-70
2021/01/29 02:06:02;;;;;;;24.83;14.30;;;;;;;1.30;91.36;98805.72;5054674;28;20120;-71
2021/01/29 02:08:33;;;;;;;25.88;14.32;;;;;;;1.22;91.30;98792.09;5054561;28;20036;-71
2021/01/29 02:10:59;;;;;;;27.25;14.90;;;;;;;1.33;91.11;98814.31;5037070;28;20033;-70
2021/01/29 02:13:24;;;;;;;28.15;15.15;;;;;;;1.30;91.20;98811.84;5036249;28;20041;-71
2021/01/29 02:15:57;;;;;;;26.42;15.20;;;;;;;1.33;91.26;98811.69;5036166;28;20044;-71
2021/01/29 02:18:41;;;;;;;25.10;14.85;;;;;;;1.34;90.89;98821.28;5036595;28;20090;-71
2021/01/29 02:21:28;;;;;;;24.92;14.68;;;;;;;1.30;90.58;98797.84;5054201;28;20082;-70
2021/01/29 02:24:12;;;;;;;27.58;14.75;;;;;;;1.33;91.01;98819.56;5054257;28;20029;-72
2021/01/29 02:26:53;;;;;;;25.63;14.35;;;;;;;1.33;91.13;98813.47;5054165;28;20078;-72
2021/01/29 02:29:48;;;;;;;26.27;14.95;;;;;;;1.36;91.06;98834.38;5054028;28;20033;-71
2021/01/29 02:32:35;;;;;;;28.60;14.90;;;;;;;1.33;90.95;98829.22;5053967;28;20143;-70
2021/01/29 02:35:19;;;;;;;30.17;15.60;;;;;;;1.35;91.07;98833.50;5054670;28;20032;-71
2021/01/29 02:37:53;;;;;;;;;;;;;;;1.30;91.20;98829.38;5054603;28;20029;-70
2021/01/29 02:40:19;;;;;;;27.25;15.05;;;;;;;1.26;91.49;98839.19;5035453;28;20392;-72
2021/01/29 02:43:20;;;;;;;30.55;16.38;;;;;;;1.29;91.57;98838.19;5053682;28;20053;-70
2021/01/29 02:45:51;;;;;;;30.20;15.85;;;;;;;1.27;91.78;98834.78;5053810;28;20087;-73
2021/01/29 02:48:29;;;;;;;29.20;16.50;;;;;;;1.01;92.05;98797.38;5053636;28;20060;-73
2021/01/29 02:51:06;;;;;;;29.08;16.20;;;;;;;1.26;91.96;98817.31;5053622;28;20032;-72
2021/01/29 02:53:39;;;;;;;30.52;16.92;;;;;;;1.27;92.04;98808.50;5053543;28;20084;-71
2021/01/29 02:56:32;;;;;;;30.73;16.48;;;;;;;1.26;92.13;98810.28;5053972;28;20033;-71
2021/01/29 02:59:03;;;;;;;34.30;17.15;;;;;;;1.22;92.19;98811.31;5053492;28;20470;-71
2021/01/29 03:01:43;;;;;;;28.70;15.77;;;;;;;1.23;92.23;98812.19;5053454;28;20032;-73
2021/01/29 03:04:26;;;;;;;31.38;16.30;;;;;;;1.17;92.06;98812.47;5053098;28;20036;-73
2021/01/29 03:07:07;;;;;;;32.47;16.52;;;;;;;1.22;91.95;98810.47;5053454;28;20381;-72
2021/01/29 03:09:55;;;;;;;32.95;16.33;;;;;;;1.37;91.83;98841.31;5053139;28;20035;-73
2021/01/29 03:12:26;;;;;;;30.50;16.60;;;;;;;1.41;91.46;98829.75;5052970;28;20069;-73
2021/01/29 03:15:13;;;;;;;31.42;16.52;;;;;;;1.41;91.46;98843.72;5053450;28;20040;-70
2021/01/29 03:17:55;;;;;;;30.92;16.90;;;;;;;1.27;91.67;98834.78;5035827;28;20037;-70
2021/01/29 03:20:33;;;;;;;30.58;16.65;;;;;;;1.37;91.56;98836.06;5035390;28;20470;-70
2021/01/29 03:23:03;;;;;;;33.58;16.02;;;;;;;1.19;91.33;98819.34;5053054;28;20469;-70
2021/01/29 03:25:36;;;;;;;33.78;16.60;;;;;;;1.28;91.62;98833.84;5052904;28;20202;-70
2021/01/29 03:28:17;;;;;;;;;;;;;;;1.34;91.69;98842.28;5053425;28;20500;-70
2021/01/29 03:30:47;;;;;;;29.02;15.95;;;;;;;1.31;91.92;98838.97;5052966;28;19974;-70
2021/01/29 03:33:16;;;;;;;30.60;16.92;;;;;;;1.38;91.64;98840.41;5052651;28;20052;-70
2021/01/29 03:35:49;;;;;;;34.33;17.77;;;;;;;1.25;91.46;98826.09;5035897;28;20366;-70
2021/01/29 03:38:37;;;;;;;28.85;16.55;;;;;;;1.38;91.91;98848.28;5052789;28;20029;-70
2021/01/29 03:41:23;;;;;;;31.77;16.60;;;;;;;1.35;92.09;98836.13;5052766;28;20033;-70
2021/01/29 03:44:01;;;;;;;34.65;17.75;;;;;;;1.36;92.05;98843.09;5035166;28;20033;-70
2021/01/29 03:46:53;;;;;;;31.65;17.25;;;;;;;1.37;92.22;98836.06;5052565;28;20057;-70
2021/01/29 03:50:03;;;;;;;30.92;17.23;;;;;;;1.53;91.64;98842.31;5052562;28;20553;-69
2021/01/29 03:52:53;;;;;;;32.60;17.17;;;;;;;1.47;91.76;98853.13;5027336;28;20083;-72
2021/01/29 03:55:33;;;;;;;31.80;17.95;;;;;;;1.41;92.03;98854.22;5056951;28;20024;-71
2021/01/29 03:58:12;;;;;;;35.08;17.92;;;;;;;1.43;91.80;98841.03;5056774;28;20055;-69
2021/01/29 04:00:46;;;;;;;30.73;17.73;;;;;;;1.47;91.61;98831.25;5057071;28;20103;-70
2021/01/29 04:03:12;;;;;;;30.13;17.33;;;;;;;1.66;90.95;98827.69;5038640;28;20075;-72
2021/01/29 04:05:45;;;;;;;33.38;17.45;;;;;;;1.77;90.85;98850.00;5056848;28;20028;-70
2021/01/29 04:08:39;;;;;;;33.13;17.20;;;;;;;1.55;90.16;98808.94;5056866;28;20375;-70
2021/01/29 04:11:08;;;;;;;32.13;16.67;;;;;;;1.77;90.08;98828.97;5056527;28;20123;-69
2021/01/29 04:13:41;;;;;;;32.38;16.88;;;;;;;1.81;90.21;98820.00;5056382;28;20037;-70
2021/01/29 04:16:10;;;;;;;;;;;;;;;1.81;89.64;98822.63;5057001;28;20025;-69
2021/01/29 04:18:50;;;;;;;29.45;16.23;;;;;;;1.75;89.78;98812.41;5056514;28;19909;-69
2021/01/29 04:21:19;;;;;;;29.38;16.58;;;;;;;1.62;90.75;98801.59;5056223;28;20029;-71
2021/01/29 04:24:06;;;;;;;33.70;17.70;;;;;;;1.55;90.80;98793.19;5056315;28;20039;-71
2021/01/29 04:26:47;;;;;;;30.20;17.17;;;;;;;1.56;91.64;98830.81;5055939;28;20036;-70
2021/01/29 04:29:19;;;;;;;28.48;16.15;;;;;;;1.39;91.44;98813.19;5037623;28;20422;-73
2021/01/29 04:31:48;;;;;;;33.40;17.60;;;;;;;1.42;91.62;98819.16;5056413;28;20151;-71
2021/01/29 04:34:18;;;;;;;30.92;17.10;;;;;;;1.38;91.67;98795.72;5056110;28;20381;-72
2021/01/29 04:36:47;;;;;;;31.17;17.15;;;;;;;1.40;91.83;98796.50;5056591;28;20453;-70
2021/01/29 04:39:21;;;;;;;31.63;16.67;;;;;;;1.57;91.48;98828.13;5056040;28;20032;-71
2021/01/29 04:42:15;;;;;;;31.40;16.48;;;;;;;1.54;91.36;98825.63;5055622;28;20530;-69
2021/01/29 04:44:56;;;;;;;31.15;15.70;;;;;;;1.54;91.45;98833.50;5036904;28;20045;-70
2021/01/29 04:47:29;;;;;;;31.83;16.70;;;;;;;1.50;91.38;98842.47;5055663;28;20032;-70
2021/01/29 04:50:06;;;;;;;30.05;16.50;;;;;;;1.50;91.55;98841.59;5056096;28;20474;-72
2021/01/29 04:52:46;;;;;;;30.33;16.95;;;;;;;1.40;91.99;98841.16;5055386;28;20041;-72
2021/01/29 04:55:27;;;;;;;32.25;16.90;;;;;;;1.51;91.78;98853.81;5056077;28;20041;-72
2021/01/29 04:57:59;;;;;;;30.52;16.42;;;;;;;1.48;91.67;98860.06;5056060;28;20037;-72
2021/01/29 05:01:01;;;;;;;32.10;16.42;;;;;;;1.49;91.95;98856.53;5055497;28;20029;-73
2021/01/29 05:03:58;;;;;;;35.05;16.60;;;;;;;1.44;92.40;98863.75;5000858;28;20045;-73
2021/01/29 05:06:51;;;;;;;29.70;15.10;;;;;;;1.48;92.09;98870.59;5055231;28;20056;-72
2021/01/29 05:09:41;;;;;;;28.57;15.80;;;;;;;1.47;92.33;98876.78;5055227;28;20543;-74
2021/01/29 05:12:41;;;;;;;30.10;15.85;;;;;;;1.39;92.21;98881.50;5055855;28;20429;-72
2021/01/29 05:15:22;;;;;;;30.65;15.27;;;;;;;1.56;92.09;98893.91;5054725;28;20033;-71
2021/01/29 05:18:02;;;;;;;30.30;15.10;;;;;;;1.40;91.43;98852.53;5055618;28;20025;-72
2021/01/29 05:21:05;;;;;;;28.75;14.98;;;;;;;1.62;91.53;98886.56;5055358;28;20032;-72
2021/01/29 05:23:55;;;;;;;31.50;15.18;;;;;;;1.64;91.52;98897.00;5055005;28;20363;-71
2021/01/29 05:26:32;;;;;;;30.70;15.68;;;;;;;1.62;91.37;98894.44;5055059;28;20390;-71
2021/01/29 05:29:11;;;;;;;36.70;17.33;;;;;;;1.61;91.75;98903.25;5055098;28;20056;-71
2021/01/29 05:32:00;;;;;;;32.88;15.88;;;;;;;1.62;91.86;98902.34;5055150;28;20112;-70
2021/01/29 05:34:48;;;;;;;33.28;15.48;;;;;;;1.62;92.08;98907.59;5004038;28;20549;-71
2021/01/29 05:37:44;;;;;;;31.23;14.35;;;;;;;1.67;91.83;98913.50;5054918;28;20033;-70
2021/01/29 05:40:28;;;;;;;26.35;13.27;;;;;;;1.67;91.30;98929.28;5054762;28;20033;-70
2021/01/29 05:43:11;;;;;;;28.67;14.88;;;;;;;1.65;91.32;98914.50;5054995;28;20102;-71
2021/01/29 05:46:09;;;;;;;31.13;14.98;;;;;;;1.77;91.07;98918.34;5054567;28;20033;-71
2021/01/29 05:49:15;;;;;;;32.30;14.65;;;;;;;1.69;91.14;98927.44;5054379;28;20108;-71
2021/01/29 05:52:12;;;;;;;32.92;15.43;;;;;;;1.50;91.17;98899.41;5054068;28;20036;-71
2021/01/29 05:55:02;;;;;;;29.58;15.02;;;;;;;1.76;90.90;98938.53;5054198;28;20025;-71
2021/01/29 05:58:15;;;;;;;31.40;15.60;;;;;;;1.70;91.24;98929.13;5054433;28;20036;-72
2021/01/29 06:00:58;;;;;;;34.00;16.17;;;;;;;1.66;91.42;98932.84;4999182;28;20045;-71
2021/01/29 06:04:01;;;;;;;32.15;15.80;;;;;;;1.70;91.40;98923.88;5036307;28;20110;-71
2021/01/29 06:06:53;;;;;;;32.08;16.48;;;;;;;1.50;91.41;98883.66;5053977;28;20033;-71
2021/01/29 06:09:37;;;;;;;34.10;15.77;;;;;;;1.76;91.40;98951.69;5036128;28;20061;-70
2021/01/29 06:12:32;;;;;;;31.15;15.77;;;;;;;1.70;91.07;98952.78;5054243;28;20155;-69
2021/01/29 06:15:13;;;;;;;29.58;15.18;;;;;;;1.73;90.76;98947.41;5053781;28;20458;-68
2021/01/29 06:18:06;;;;;;;28.98;14.98;;;;;;;1.54;90.26;98891.31;5053583;28;20037;-68
2021/01/29 06:20:48;;;;;;;30.20;15.32;;;;;;;1.82;90.22;98932.97;5053957;28;20033;-71
2021/01/29 06:23:45;;;;;;;29.05;14.30;;;;;;;1.81;90.09;98936.53;5054008;28;20083;-69
2021/01/29 06:26:38;;;;;;;31.65;14.57;;;;;;;1.69;90.23;98918.69;5035467;28;20385;-69
2021/01/29 06:29:10;;;;;;;28.60;14.85;;;;;;;1.81;89.76;98930.44;5053359;28;20028;-69
2021/01/29 06:32:08;;;;;;;27.48;13.57;;;;;;;1.87;89.78;98940.69;5035841;28;20135;-71
2021/01/29 06:34:48;;;;;;;28.98;14.88;;;;;;;1.82;89.92;98938.25;5039699;28;20048;-71
2021/01/29 06:37:23;;;;;;;27.08;14.45;;;;;;;1.86;89.81;98931.09;5054053;28;20029;-70
2021/01/29 06:40:15;;;;;;;32.38;16.35;;;;;;;1.85;89.50;98956.53;5053801;28;20449;-70
2021/01/29 06:43:12;;;;;;;29.15;14.60;;;;;;;1.77;89.93;98924.47;5053672;28;20114;-72
2021/01/29 06:46:03;;;;;;;30.85;15.50;;;;;;;1.95;89.96;98949.06;5053617;28;20054;-71
2021/01/29 06:48:49;;;;;;;33.97;16.20;;;;;;;1.66;90.12;98906.56;5053492;28;20040;-77
2021/01/29 06:51:36;;;;;;;28.17;15.73;;;;;;;1.89;90.61;98947.56;5053880;28;20028;-69
2021/01/29 06:54:30;;;;;;;30.30;15.70;;;;;;;1.91;90.33;98937.81;5053829;28;20036;-71
2021/01/29 06:57:25;;;;;;;29.10;15.68;;;;;;;1.93;90.16;98950.91;5014770;28;20088;-70
2021/01/29 07:00:15;;;;;;;29.15;14.90;;;;;;;1.95;90.29;98946.44;5053706;28;20024;-70
2021/01/29 07:03:02;;;;;;;31.30;16.42;;;;;;;1.99;90.37;98942.75;5053119;28;20052;-71
2021/01/29 07:05:49;;;;;;;29.75;15.98;;;;;;;2.10;89.78;98944.88;5002552;28;20037;-73
2021/01/29 07:08:38;;;;;;;30.98;16.02;;;;;;;2.19;89.74;98953.19;5034958;28;20029;-71
2021/01/29 07:11:29;;;;;;;30.75;15.43;;;;;;;2.26;89.06;98949.34;5053192;28;20138;-71
2021/01/29 07:14:02;;;;;;;31.27;15.63;;;;;;;2.29;89.05;98946.56;5004813;28;20517;-71
2021/01/29 07:16:36;;;;;;;25.67;13.70;;;;;;;2.44;88.02;98944.16;5053230;28;20142;-71
2021/01/29 07:19:24;;;;;;;26.65;14.32;;;;;;;2.37;87.51;98946.22;5053277;28;20033;-70
2021/01/29 07:22:13;;;;;;;25.45;13.75;;;;;;;2.34;87.38;98927.09;5052972;28;20036;-71
2021/01/29 07:25:06;;;;;;;26.67;13.57;;;;;;;2.57;87.49;98938.19;5053318;28;20463;-70
2021/01/29 07:27:37;;;;;;;31.90;15.98;;;;;;;2.54;87.68;98943.63;5052299;28;20103;-72
2021/01/29 07:30:26;;;;;;;32.60;16.58;;;;;;;2.57;87.85;98954.00;5052912;28;20033;-70
2021/01/29 07:33:40;;;;;;;31.73;16.83;;;;;;;2.53;88.28;98946.34;5052807;28;20028;-70
2021/01/29 07:36:14;;;;;;;28.42;15.80;;;;;;;2.52;88.27;98956.00;5031209;28;20102;-72
2021/01/29 07:38:59;;;;;;;29.00;16.50;;;;;;;2.56;87.70;98940.91;5052587;28;20496;-73
2021/01/29 07:41:45;;;;;;;29.77;14.52;;;;;;;2.61;87.28;98933.66;5052367;28;20049;-71
2021/01/29 07:44:25;;;;;;;27.20;13.95;;;;;;;2.67;86.63;98896.47;5052773;28;20094;-71
2021/01/29 07:47:22;;;;;;;26.58;13.02;;;;;;;2.61;86.14;98902.06;5052642;28;20186;-73
2021/01/29 07:50:15;;;;;;;22.55;12.75;;;;;;;2.69;85.80;98906.94;5052973;28;20029;-73
2021/01/29 07:53:01;;;;;;;24.92;12.48;;;;;;;2.70;86.02;98891.09;5052515;28;20033;-69
2021/01/29 07:55:54;;;;;;;22.90;13.02;;;;;;;2.75;85.78;98894.31;5052603;28;20029;-69
2021/01/29 07:58:34;;;;;;;22.58;12.10;;;;;;;2.81;84.81;98914.25;5052791;28;20079;-69
2021/01/29 08:01:00;;;;;;;21.52;11.02;;;;;;;2.81;85.25;98935.31;5035187;28;20052;-70
2021/01/29 08:03:47;;;;;;;17.42;8.35;;;;;;;2.71;84.94;98942.81;5052813;28;20473;-71
2021/01/29 08:06:19;;;;;;;18.23;10.65;;;;;;;2.77;85.20;98925.84;5052585;28;20031;-70
2021/01/29 08:08:51;;;;;;;17.83;10.00;;;;;;;2.84;84.59;98914.94;5052478;28;20380;-69
2021/01/29 08:11:18;;;;;;;16.85;10.15;;;;;;;2.47;84.67;98846.59;5052916;28;20044;-69
2021/01/29 08:13:59;;;;;;;19.60;10.55;;;;;;;2.76;85.35;98932.03;5018528;28;20045;-71
2021/01/29 08:16:46;;;;;;;19.80;11.00;;;;;;;2.79;85.75;98932.72;5052426;28;20044;-70
2021/01/29 08:19:20;;;;;;;22.50;11.57;;;;;;;2.73;86.05;98911.13;5052814;28;20068;-70
2021/01/29 08:21:49;;;;;;;20.15;10.90;;;;;;;2.94;85.01;98925.00;5052526;28;20079;-69
2021/01/29 08:24:39;;;;;;;23.20;12.63;;;;;;;2.93;85.32;98912.78;5052612;28;20025;-69
2021/01/29 08:27:37;;;;;;;24.58;12.23;;;;;;;3.16;83.92;98913.31;5034549;28;20055;-70
2021/01/29 08:30:27;;;;;;;23.10;12.73;;;;;;;3.20;84.03;98915.81;5052504;28;20025;-70
2021/01/29 08:33:18;;;;;;;35.90;12.63;;;;;;;3.19;84.39;98899.13;5052158;28;20053;-69
2021/01/29 08:36:01;;;;;;;23.13;12.45;;;;;;;3.36;83.88;98907.00;5052220;28;20065;-69
2021/01/29 08:38:52;;;;;;;21.85;11.98;;;;;;;3.41;83.57;98899.72;5052508;28;20028;-71
2021/01/29 08:41:25;;;;;;;18.88;10.85;;;;;;;3.47;83.28;98910.84;5056188;28;20040;-70
2021/01/29 08:44:12;;;;;;;21.30;12.38;;;;;;;3.33;84.11;98901.91;5055827;28;20155;-69
2021/01/29 08:47:07;;;;;;;20.23;11.20;;;;;;;3.30;84.58;98891.53;5038150;28;20501;-69
2021/01/29 08:50:12;;;;;;;20.92;11.10;;;;;;;3.17;84.52;98896.56;5055968;28;20041;-70
2021/01/29 08:53:15;;;;;;;19.08;10.57;;;;;;;3.17;84.79;98901.81;5055767;28;20083;-71
2021/01/29 08:55:56;;;;;;;17.92;10.57;;;;;;;3.23;84.85;98903.31;5055446;28;20394;-70
2021/01/29 08:58:29;;;;;;;18.90;10.10;;;;;;;3.37;84.54;98898.16;5056036;28;20119;-70
2021/01/29 09:01:17;;;;;;;19.50;10.82;;;;;;;3.34;84.67;98886.94;5055762;28;20742;-70
2021/01/29 09:03:53;;;;;;;18.70;9.73;;;;;;;3.47;84.62;98881.84;5055116;28;20492;-71
2021/01/29 09:06:25;;;;;;;18.08;10.75;;;;;;;3.49;84.50;98870.31;5037733;28;20029;-70
2021/01/29 09:09:03;;;;;;;18.27;11.07;;;;;;;3.52;84.34;98853.47;5055307;28;20036;-71
2021/01/29 09:12:02;;;;;;;18.10;10.48;;;;;;;3.64;84.29;98877.38;5055356;28;20541;-70
2021/01/29 09:14:49;;;;;;;17.58;10.40;;;;;;;3.46;84.50;98838.84;5001884;28;20037;-69
2021/01/29 09:17:21;;;;;;;15.57;9.60;;;;;;;3.58;84.25;98856.66;5056622;28;20029;-69
2021/01/29 09:20:00;;;;;;;18.15;10.73;;;;;;;3.61;84.55;98848.56;5055320;28;20428;-69
2021/01/29 09:22:32;;;;;;;16.90;10.10;;;;;;;3.75;84.49;98858.34;5055389;28;20465;-69
2021/01/29 09:25:28;;;;;;;18.23;10.55;;;;;;;3.76;84.32;98857.41;5055306;28;20398;-69
2021/01/29 09:28:15;;;;;;;16.95;9.93;;;;;;;3.65;83.57;98820.22;5054877;28;20028;-69
2021/01/29 09:31:02;;;;;;;20.45;10.57;;;;;;;3.65;84.03;98805.25;5055010;28;20033;-70
2021/01/29 09:33:46;;;;;;;19.23;11.07;;;;;;;3.89;83.85;98840.00;5037325;28;20029;-70
2021/01/29 09:36:17;;;;;;;18.35;10.40;;;;;;;4.03;83.36;98821.59;5055235;28;20111;-69
2021/01/29 09:38:48;;;;;;;18.10;10.60;;;;;;;4.21;81.22;98809.16;5054767;28;20489;-71
2021/01/29 09:41:22;;;;;;;15.43;10.02;;;;;;;4.26;81.27;98819.47;5054773;28;20139;-70
2021/01/29 09:44:13;;;;;;;18.95;10.35;;;;;;;4.23;80.72;98787.94;5054818;28;20029;-70
2021/01/29 09:46:42;;;;;;;16.95;10.10;;;;;;;4.38;81.06;98807.34;5055155;28;20091;-70
2021/01/29 09:49:19;;;;;;;17.23;10.50;;;;;;;4.38;81.95;98795.00;5037256;28;20029;-70
2021/01/29 09:51:58;;;;;;;19.77;11.50;;;;;;;4.29;81.18;98803.44;5036599;28;20091;-70
2021/01/29 09:54:51;;;;;;;17.92;11.25;;;;;;;4.10;81.66;98800.16;5054137;28;20071;-70
2021/01/29 09:57:17;;;;;;;21.80;11.47;;;;;;;4.19;81.96;98804.91;5037204;28;20466;-69
2021/01/29 10:00:12;;;;;;;19.85;11.57;;;;;;;4.02;82.12;98775.03;5054393;28;20115;-70
2021/01/29 10:02:37;;;;;;;19.30;10.68;;;;;;;4.31;81.38;98801.56;5036919;28;20037;-70
2021/01/29 10:05:16;;;;;;;24.17;11.85;;;;;;;4.34;81.25;98801.38;5054236;28;20029;-70
2021/01/29 10:07:55;;;;;;;20.20;11.60;;;;;;;4.19;81.18;98775.88;5054371;28;20029;-69
2021/01/29 10:10:24;;;;;;;22.65;12.43;;;;;;;4.36;81.35;98777.56;5054476;28;20040;-69
2021/01/29 10:13:20;;;;;;;19.92;11.77;;;;;;;4.44;81.69;98762.97;5036198;28;20048;-69
2021/01/29 10:15:54;;;;;;;19.85;11.10;;;;;;;4.37;81.38;98760.75;5054031;28;20533;-69
2021/01/29 10:18:26;;;;;;;20.27;11.93;;;;;;;4.30;82.58;98769.03;5036739;28;20033;-69
2021/01/29 10:21:07;;;;;;;20.40;12.05;;;;;;;4.33;82.80;98770.63;5036169;28;20037;-70
2021/01/29 10:23:43;;;;;;;21.00;12.50;;;;;;;4.40;82.55;98764.06;5036457;28;20059;-71
2021/01/29 10:26:31;;;;;;;21.83;12.48;;;;;;;4.41;82.24;98762.28;5054485;28;20053;-70
2021/01/29 10:29:21;;;;;;;21.63;12.35;;;;;;;4.47;82.57;98757.50;5036157;28;20029;-69
2021/01/29 10:32:25;;;;;;;21.20;11.13;;;;;;;4.50;82.03;98752.03;5053952;28;20035;-69
2021/01/29 10:34:57;;;;;;;19.73;11.95;;;;;;;4.65;81.05;98745.00;5052906;28;20029;-69
2021/01/29 10:37:33;;;;;;;20.20;12.40;;;;;;;4.47;81.08;98717.03;5053860;28;20478;-69
2021/01/29 10:40:16;;;;;;;20.70;12.27;;;;;;;4.71;80.01;98747.25;5053599;28;20123;-70
2021/01/29 10:42:46;;;;;;;21.25;12.75;;;;;;;4.72;80.37;98754.22;5060324;28;20052;-70
2021/01/29 10:45:40;;;;;;;22.08;12.43;;;;;;;4.72;81.10;98742.81;5073751;28;20097;-71
2021/01/29 10:48:20;;;;;;;20.17;12.27;;;;;;;4.74;81.83;98748.88;5041865;28;20489;-70
2021/01/29 10:50:56;;;;;;;22.70;13.60;;;;;;;4.76;82.24;98731.13;5073233;28;20559;-71
2021/01/29 10:53:24;;;;;;;24.75;14.30;;;;;;;4.91;82.33;98738.13;5073777;28;20032;-70
2021/01/29 10:55:53;;;;;;;24.63;13.75;;;;;;;4.70;81.63;98686.59;5073321;28;20094;-70
2021/01/29 10:58:21;;;;;;;24.63;14.30;;;;;;;4.91;82.03;98714.34;5073675;28;20029;-70
2021/01/29 11:00:59;;;;;;;23.65;14.07;;;;;;;5.04;81.53;98723.22;5073237;28;20470;-70
2021/01/29 11:04:07;;;;;;;24.77;13.57;;;;;;;5.01;81.76;98741.88;5072902;28;20515;-70
2021/01/29 11:06:40;;;;;;;25.77;13.95;;;;;;;4.97;81.86;98732.47;5044424;28;20563;-70
2021/01/29 11:09:15;;;;;;;27.70;15.05;;;;;;;4.81;82.38;98711.41;5073176;28;20024;-70
2021/01/29 11:11:47;;;;;;;24.83;13.50;;;;;;;5.02;82.72;98734.81;5073557;28;20086;-70
2021/01/29 11:14:25;;;;;;;25.20;14.65;;;;;;;4.95;82.85;98750.22;5073219;28;20067;-70
2021/01/29 11:17:12;;;;;;;24.45;14.85;;;;;;;4.88;83.14;98733.03;5073361;28;20432;-70
2021/01/29 11:19:49;;;;;;;24.00;14.85;;;;;;;4.95;83.28;98744.06;5073264;28;20457;-70
2021/01/29 11:23:01;;;;;;;30.08;15.38;;;;;;;4.95;83.34;98744.06;5073470;28;20032;-69
2021/01/29 11:25:42;;;;;;;24.30;15.05;;;;;;;4.98;82.35;98733.31;5036555;28;20047;-69
2021/01/29 11:28:14;;;;;;;24.92;14.82;;;;;;;5.03;82.81;98747.97;5072811;28;20020;-69
2021/01/29 11:31:10;;;;;;;24.88;14.45;;;;;;;4.93;83.53;98727.47;5071897;28;20552;-69
2021/01/29 11:33:42;;;;;;;27.25;16.58;;;;;;;4.90;83.78;98720.56;5072251;28;20127;-69
2021/01/29 11:36:23;;;;;;;26.63;15.43;;;;;;;4.82;84.30;98718.38;5072707;28;20029;-69
2021/01/29 11:39:40;;;;;;;24.80;15.27;;;;;;;4.53;85.50;98690.25;5072700;28;20032;-69
2021/01/29 11:42:20;;;;;;;26.35;15.07;;;;;;;4.93;85.00;98725.69;5010571;28;20069;-69
2021/01/29 11:45:02;;;;;;;30.00;18.33;;;;;;;4.91;84.83;98719.63;5011055;28;20046;-71
2021/01/29 11:47:34;;;;;;;32.17;18.65;;;;;;;4.83;85.48;98714.81;5051602;28;20121;-70
2021/01/29 11:50:16;;;;;;;33.47;21.35;;;;;;;4.80;85.80;98709.72;5072742;28;20033;-70
2021/01/29 11:52:56;;;;;;;31.67;18.85;;;;;;;4.74;86.11;98703.97;5072850;28;20043;-70
2021/01/29 11:55:39;;;;;;;35.28;19.25;;;;;;;4.82;85.95;98693.75;5072689;28;20033;-69
2021/01/29 11:58:42;;;;;;;33.00;19.40;;;;;;;4.82;85.78;98696.41;5072825;28;20032;-70
2021/01/29 12:01:18;;;;;;;34.97;20.00;;;;;;;4.83;86.00;98674.34;5038562;28;20052;-70
2021/01/29 12:04:07;;;;;;;38.42;21.08;;;;;;;4.80;86.27;98656.03;5071377;28;20397;-69
2021/01/29 12:06:37;;;;;;;35.85;21.42;;;;;;;4.87;86.65;98678.50;5072726;28;20029;-70
2021/01/29 12:09:09;;;;;;;38.20;22.33;;;;;;;4.94;86.99;98686.91;5072428;28;20509;-70
2021/01/29 12:11:59;;;;;;;37.75;22.05;;;;;;;4.94;86.70;98684.25;5073027;28;20021;-70
2021/01/29 12:14:33;;;;;;;38.65;22.60;;;;;;;4.94;86.98;98684.25;5074369;28;20393;-70
2021/01/29 12:17:04;;;;;;;36.15;22.15;;;;;;;4.81;87.41;98684.13;5076803;28;20470;-69
2021/01/29 12:19:36;;;;;;;37.42;21.20;;;;;;;4.75;87.61;98663.41;5076492;28;20035;-70
2021/01/29 12:22:27;;;;;;;35.78;21.30;;;;;;;4.78;87.57;98671.13;5075948;28;20047;-69
2021/01/29 12:25:20;;;;;;;34.67;19.77;;;;;;;4.83;87.18;98671.72;5065095;28;20044;-69